Time;durP1;ratioP1;P1;durP2;ratioP2;P2;SDS_P1;SDS_P2;PMS_P1;PMS_P2;Temp;Humidity;BMP_temperature;BMP_pressure;BME280_temperature;BME280_humidity;BME280_pressure;Samples;Min_cycle;Max_cycle;Signal;HPM_P1;HPM_P2
2022/03/28 00:01:41;;;;;;;;;;;21.40;29.80;;;;;;484326;246;1220;-39
2022/03/28 00:03:43;;;;;;;;;;;21.40;29.90;;;;;;484379;246;1186;-39
2022/03/28 00:05:44;;;;;;;;;;;21.40;29.90;;;;;;484345;246;1499;-39
2022/03/28 00:07:45;;;;;;;;;;;21.40;29.90;;;;;;484742;246;2132;-39
2022/03/28 00:09:47;;;;;;;;;;;21.40;29.80;;;;;;484649;246;1067;-39
2022/03/28 00:11:48;;;;;;;;;;;21.50;29.90;;;;;;484317;246;1338;-39
2022/03/28 00:13:49;;;;;;;;;;;21.40;29.80;;;;;;484514;246;1049;-39
2022/03/28 00:15:51;;;;;;;;;;;21.40;29.80;;;;;;484341;246;1410;-39
2022/03/28 00:17:52;;;;;;;;;;;21.40;29.90;;;;;;484762;246;2125;-39
2022/03/28 00:19:53;;;;;;;;;;;21.40;29.90;;;;;;484793;246;1052;-39
2022/03/28 00:21:56;;;;;;;;;;;21.30;29.90;;;;;;484441;246;1346;-39
2022/03/28 00:23:56;;;;;;;;;;;21.40;29.90;;;;;;484703;246;2272;-39
2022/03/28 00:25:57;;;;;;;;;;;21.40;29.90;;;;;;484739;246;1134;-39
2022/03/28 00:27:59;;;;;;;;;;;21.40;29.90;;;;;;484774;246;2183;-39
2022/03/28 00:30:00;;;;;;;;;;;21.40;29.80;;;;;;484817;246;1116;-39
2022/03/28 00:32:01;;;;;;;;;;;21.40;29.90;;;;;;484542;246;1180;-39
2022/03/28 00:34:02;;;;;;;;;;;21.40;29.90;;;;;;484379;246;1040;-39
2022/03/28 00:36:04;;;;;;;;;;;21.40;29.90;;;;;;484687;246;1137;-39
2022/03/28 00:38:05;;;;;;;;;;;21.40;29.90;;;;;;484341;246;1842;-39
2022/03/28 00:40:07;;;;;;;;;;;21.40;29.90;;;;;;484361;246;1117;-39
2022/03/28 00:42:08;;;;;;;;;;;21.40;29.90;;;;;;484728;246;1192;-39
2022/03/28 00:44:09;;;;;;;;;;;21.40;29.90;;;;;;484819;246;1069;-39
2022/03/28 00:46:11;;;;;;;;;;;21.40;29.90;;;;;;484770;246;1348;-39
2022/03/28 00:48:12;;;;;;;;;;;21.40;29.90;;;;;;484763;246;2184;-39
2022/03/28 00:50:13;;;;;;;;;;;21.40;29.90;;;;;;484744;246;1051;-39
2022/03/28 00:52:14;;;;;;;;;;;21.40;30.00;;;;;;484265;246;1165;-39
2022/03/28 00:54:16;;;;;;;;;;;21.40;29.90;;;;;;484796;246;1103;-39
2022/03/28 00:56:17;;;;;;;;;;;21.40;29.90;;;;;;484524;241;1186;-39
2022/03/28 00:58:18;;;;;;;;;;;21.40;29.90;;;;;;484795;246;1216;-39
2022/03/28 01:00:20;;;;;;;;;;;21.40;29.90;;;;;;484775;246;1066;-39
2022/03/28 01:02:21;;;;;;;;;;;21.30;29.90;;;;;;484406;246;1262;-39
2022/03/28 01:04:23;;;;;;;;;;;21.40;29.90;;;;;;484620;246;1137;-39
2022/03/28 01:06:24;;;;;;;;;;;21.40;29.90;;;;;;484204;241;2167;-39
2022/03/28 01:08:26;;;;;;;;;;;21.40;29.90;;;;;;484766;246;1049;-39
2022/03/28 01:10:26;;;;;;;;;;;21.40;29.90;;;;;;484490;246;2155;-39
2022/03/28 01:12:28;;;;;;;;;;;21.40;29.90;;;;;;484447;246;1171;-39
2022/03/28 01:14:29;;;;;;;;;;;21.30;29.90;;;;;;484375;246;1051;-39
2022/03/28 01:16:30;;;;;;;;;;;21.40;29.90;;;;;;484725;241;1356;-39
2022/03/28 01:18:32;;;;;;;;;;;21.40;29.90;;;;;;484730;246;1235;-39
2022/03/28 01:20:33;;;;;;;;;;;21.30;29.90;;;;;;484310;246;1144;-39
2022/03/28 01:22:34;;;;;;;;;;;21.40;29.90;;;;;;484451;246;1229;-39
2022/03/28 01:24:36;;;;;;;;;;;21.40;29.90;;;;;;484695;246;1026;-39
2022/03/28 01:26:37;;;;;;;;;;;21.30;29.90;;;;;;484446;246;2141;-39
2022/03/28 01:28:38;;;;;;;;;;;21.30;30.00;;;;;;484343;246;1049;-39
2022/03/28 01:30:40;;;;;;;;;;;21.40;29.90;;;;;;484553;246;1157;-39
2022/03/28 01:32:41;;;;;;;;;;;21.40;29.90;;;;;;484410;246;1221;-39
2022/03/28 01:34:42;;;;;;;;;;;21.40;29.90;;;;;;484758;246;1037;-39
2022/03/28 01:36:44;;;;;;;;;;;21.40;29.90;;;;;;484698;246;1347;-39
2022/03/28 01:38:46;;;;;;;;;;;21.40;29.90;;;;;;484242;246;1140;-39
2022/03/28 01:40:47;;;;;;;;;;;21.40;29.90;;;;;;484373;246;1207;-39
2022/03/28 01:42:49;;;;;;;;;;;21.40;29.90;;;;;;484733;246;1053;-39
2022/03/28 01:44:50;;;;;;;;;;;21.40;29.90;;;;;;484790;246;1147;-39
2022/03/28 01:46:51;;;;;;;;;;;21.40;30.00;;;;;;484535;246;2129;-39
2022/03/28 01:48:53;;;;;;;;;;;21.40;29.90;;;;;;484344;246;1048;-39
2022/03/28 01:50:54;;;;;;;;;;;21.30;29.90;;;;;;484326;246;1386;-39
2022/03/28 01:52:55;;;;;;;;;;;21.30;29.90;;;;;;484508;246;1177;-39
2022/03/28 01:54:57;;;;;;;;;;;21.40;30.00;;;;;;484223;246;1104;-39
2022/03/28 01:56:58;;;;;;;;;;;21.40;29.90;;;;;;484285;246;1357;-39
2022/03/28 01:58:59;;;;;;;;;;;21.40;29.90;;;;;;484746;246;1061;-39
2022/03/28 02:01:01;;;;;;;;;;;21.40;29.90;;;;;;484463;246;1374;-39
2022/03/28 02:03:02;;;;;;;;;;;21.40;29.90;;;;;;484299;246;1294;-39
2022/03/28 02:05:03;;;;;;;;;;;21.40;30.00;;;;;;484291;246;1002;-39
2022/03/28 02:07:05;;;;;;;;;;;21.40;30.00;;;;;;484522;246;2136;-39
2022/03/28 02:09:06;;;;;;;;;;;21.40;30.00;;;;;;484749;246;1105;-39
2022/03/28 02:11:07;;;;;;;;;;;21.40;30.00;;;;;;484735;246;1370;-39
2022/03/28 02:13:09;;;;;;;;;;;21.40;30.00;;;;;;484700;246;1050;-39
2022/03/28 02:15:10;;;;;;;;;;;21.40;29.90;;;;;;484283;246;1208;-39
2022/03/28 02:17:12;;;;;;;;;;;21.40;30.00;;;;;;484284;246;1347;-39
2022/03/28 02:19:13;;;;;;;;;;;21.40;30.00;;;;;;484769;246;1032;-39
2022/03/28 02:21:15;;;;;;;;;;;21.40;29.90;;;;;;484712;246;1125;-39
2022/03/28 02:23:16;;;;;;;;;;;21.40;29.90;;;;;;484500;246;1267;-39
2022/03/28 02:25:17;;;;;;;;;;;21.40;29.90;;;;;;484326;246;1175;-39
2022/03/28 02:27:19;;;;;;;;;;;21.40;30.00;;;;;;484340;246;2141;-39
2022/03/28 02:29:20;;;;;;;;;;;21.40;29.90;;;;;;484340;246;1201;-39
2022/03/28 02:31:21;;;;;;;;;;;21.40;30.00;;;;;;484283;246;1344;-39
2022/03/28 02:33:23;;;;;;;;;;;21.40;29.90;;;;;;484452;246;1013;-39
2022/03/28 02:35:24;;;;;;;;;;;21.40;29.90;;;;;;484738;246;1078;-39
2022/03/28 02:37:25;;;;;;;;;;;21.40;29.90;;;;;;484657;246;1699;-39
2022/03/28 02:39:27;;;;;;;;;;;21.40;29.90;;;;;;484469;246;964;-39
2022/03/28 02:41:28;;;;;;;;;;;21.30;30.00;;;;;;484721;246;1036;-39
2022/03/28 02:43:29;;;;;;;;;;;21.30;30.00;;;;;;484735;246;1396;-39
2022/03/28 02:45:30;;;;;;;;;;;21.30;30.00;;;;;;484526;246;1070;-39
2022/03/28 02:47:32;;;;;;;;;;;21.30;30.00;;;;;;484627;246;2183;-39
2022/03/28 02:49:33;;;;;;;;;;;21.30;30.00;;;;;;484254;246;1129;-39
2022/03/28 02:51:34;;;;;;;;;;;21.40;30.00;;;;;;484701;246;1215;-39
2022/03/28 02:53:36;;;;;;;;;;;21.40;29.90;;;;;;484325;246;1287;-39
2022/03/28 02:55:37;;;;;;;;;;;21.40;29.90;;;;;;484507;246;1273;-39
2022/03/28 02:57:38;;;;;;;;;;;21.40;29.90;;;;;;484749;246;978;-39
2022/03/28 02:59:40;;;;;;;;;;;21.40;29.90;;;;;;484761;246;1048;-39
2022/03/28 03:01:41;;;;;;;;;;;21.30;30.00;;;;;;484748;246;1176;-39
2022/03/28 03:03:43;;;;;;;;;;;21.40;30.00;;;;;;484347;246;1037;-39
2022/03/28 03:05:44;;;;;;;;;;;21.40;30.00;;;;;;484284;246;1052;-39
2022/03/28 03:07:45;;;;;;;;;;;21.40;30.00;;;;;;484426;246;2121;-39
2022/03/28 03:09:47;;;;;;;;;;;21.40;30.00;;;;;;484313;246;1072;-39
2022/03/28 03:11:48;;;;;;;;;;;21.40;29.90;;;;;;484280;246;1270;-39
2022/03/28 03:13:49;;;;;;;;;;;21.30;30.00;;;;;;484768;246;1078;-39
2022/03/28 03:15:51;;;;;;;;;;;21.40;30.00;;;;;;484702;246;1045;-39
2022/03/28 03:17:52;;;;;;;;;;;21.40;30.00;;;;;;484585;246;1334;-39
2022/03/28 03:19:53;;;;;;;;;;;21.30;29.90;;;;;;484767;246;1087;-39
2022/03/28 03:21:54;;;;;;;;;;;21.30;30.00;;;;;;484702;241;1162;-39
2022/03/28 03:23:56;;;;;;;;;;;21.30;30.00;;;;;;484500;246;1415;-39
2022/03/28 03:25:57;;;;;;;;;;;21.40;30.00;;;;;;484734;246;1152;-39
2022/03/28 03:27:58;;;;;;;;;;;21.40;30.00;;;;;;484701;246;2132;-39
2022/03/28 03:30:00;;;;;;;;;;;21.40;29.90;;;;;;484743;246;1042;-39
2022/03/28 03:32:02;;;;;;;;;;;21.30;29.90;;;;;;484563;246;1279;-39
2022/03/28 03:34:02;;;;;;;;;;;21.40;30.00;;;;;;484443;246;2186;-39
2022/03/28 03:36:04;;;;;;;;;;;21.30;30.00;;;;;;484367;246;1297;-39
2022/03/28 03:38:05;;;;;;;;;;;21.30;30.00;;;;;;484664;246;1268;-39
2022/03/28 03:40:06;;;;;;;;;;;21.40;30.00;;;;;;484251;246;1039;-39
2022/03/28 03:42:08;;;;;;;;;;;21.30;30.00;;;;;;484676;246;1349;-39
2022/03/28 03:44:09;;;;;;;;;;;21.40;30.00;;;;;;484730;246;1021;-39
2022/03/28 03:46:10;;;;;;;;;;;21.40;29.90;;;;;;484645;246;1177;-39
2022/03/28 03:48:12;;;;;;;;;;;21.40;29.90;;;;;;484256;246;2203;-39
2022/03/28 03:50:13;;;;;;;;;;;21.40;29.90;;;;;;484705;246;1018;-39
2022/03/28 03:52:14;;;;;;;;;;;21.40;29.90;;;;;;484636;246;1345;-39
2022/03/28 03:54:16;;;;;;;;;;;21.30;29.90;;;;;;484357;246;1211;-39
2022/03/28 03:56:17;;;;;;;;;;;21.40;30.00;;;;;;484629;246;1148;-39
2022/03/28 03:58:18;;;;;;;;;;;21.30;29.90;;;;;;484656;246;1252;-39
2022/03/28 04:00:19;;;;;;;;;;;21.30;30.00;;;;;;484441;246;1065;-39
2022/03/28 04:02:21;;;;;;;;;;;21.40;30.00;;;;;;484682;246;1224;-39
2022/03/28 04:04:22;;;;;;;;;;;21.30;30.00;;;;;;484650;246;1064;-39
2022/03/28 04:06:23;;;;;;;;;;;21.30;30.00;;;;;;484214;246;1355;-39
2022/03/28 04:08:26;;;;;;;;;;;21.30;30.00;;;;;;484238;246;2204;-39
2022/03/28 04:10:27;;;;;;;;;;;21.30;30.00;;;;;;484609;246;1693;-39
2022/03/28 04:12:28;;;;;;;;;;;21.30;29.90;;;;;;484611;246;1063;-39
2022/03/28 04:14:30;;;;;;;;;;;21.30;30.00;;;;;;484300;246;1174;-39
2022/03/28 04:16:31;;;;;;;;;;;21.30;30.00;;;;;;484663;246;1077;-39
2022/03/28 04:18:32;;;;;;;;;;;21.40;30.00;;;;;;484619;246;1055;-39
2022/03/28 04:20:34;;;;;;;;;;;21.40;30.00;;;;;;484620;246;1073;-39
2022/03/28 04:22:35;;;;;;;;;;;21.30;29.90;;;;;;484177;246;1057;-39
2022/03/28 04:24:36;;;;;;;;;;;21.30;30.00;;;;;;484295;246;1188;-39
2022/03/28 04:26:38;;;;;;;;;;;21.30;30.00;;;;;;484541;246;1209;-39
2022/03/28 04:28:39;;;;;;;;;;;21.40;30.00;;;;;;484375;246;2119;-39
2022/03/28 04:30:40;;;;;;;;;;;21.30;30.00;;;;;;484595;246;1094;-39
2022/03/28 04:32:41;;;;;;;;;;;21.30;30.00;;;;;;484615;246;1229;-39
2022/03/28 04:34:43;;;;;;;;;;;21.30;30.00;;;;;;484151;246;1087;-39
2022/03/28 04:36:44;;;;;;;;;;;21.30;30.00;;;;;;484324;246;1257;-39
2022/03/28 04:38:45;;;;;;;;;;;21.30;30.00;;;;;;484115;246;1289;-39
2022/03/28 04:40:47;;;;;;;;;;;21.30;30.00;;;;;;484213;246;1062;-39
2022/03/28 04:42:48;;;;;;;;;;;21.30;30.00;;;;;;484112;246;1213;-39
2022/03/28 04:44:49;;;;;;;;;;;21.30;30.00;;;;;;484186;246;972;-39
2022/03/28 04:46:51;;;;;;;;;;;21.30;30.00;;;;;;484330;246;1320;-39
2022/03/28 04:48:52;;;;;;;;;;;21.30;30.00;;;;;;484558;246;2131;-39
2022/03/28 04:50:53;;;;;;;;;;;21.30;30.00;;;;;;484304;246;1154;-39
2022/03/28 04:52:55;;;;;;;;;;;21.30;30.00;;;;;;484235;246;1127;-39
2022/03/28 04:54:56;;;;;;;;;;;21.30;30.00;;;;;;484286;246;1187;-39
2022/03/28 04:56:57;;;;;;;;;;;21.30;30.00;;;;;;484361;246;1334;-39
2022/03/28 04:58:59;;;;;;;;;;;21.30;30.00;;;;;;484146;246;1084;-39
2022/03/28 05:01:00;;;;;;;;;;;21.30;30.00;;;;;;484380;246;1132;-39
2022/03/28 05:03:02;;;;;;;;;;;21.30;30.00;;;;;;484110;246;1229;-39
2022/03/28 05:05:03;;;;;;;;;;;21.30;30.00;;;;;;484212;246;2251;-39
2022/03/28 05:07:04;;;;;;;;;;;21.40;30.00;;;;;;484194;246;1368;-39
2022/03/28 05:09:06;;;;;;;;;;;21.40;30.00;;;;;;484260;246;2183;-39
2022/03/28 05:11:07;;;;;;;;;;;21.40;30.00;;;;;;484467;246;1142;-39
2022/03/28 05:13:08;;;;;;;;;;;21.40;29.90;;;;;;484123;246;1048;-39
2022/03/28 05:15:10;;;;;;;;;;;21.40;30.00;;;;;;484394;246;1019;-39
2022/03/28 05:17:11;;;;;;;;;;;21.40;30.00;;;;;;484234;246;1266;-39
2022/03/28 05:19:12;;;;;;;;;;;21.30;29.90;;;;;;484070;246;1039;-39
2022/03/28 05:21:14;;;;;;;;;;;21.30;29.90;;;;;;484109;242;1289;-39
2022/03/28 05:23:15;;;;;;;;;;;21.30;30.00;;;;;;483967;246;1218;-39
2022/03/28 05:25:17;;;;;;;;;;;21.40;30.00;;;;;;484138;246;1174;-39
2022/03/28 05:27:18;;;;;;;;;;;21.30;29.90;;;;;;484066;246;1231;-39
2022/03/28 05:29:23;;;;;;;;;;;21.40;30.00;;;;;;484152;246;2191;-39
2022/03/28 05:31:21;;;;;;;;;;;21.30;30.00;;;;;;483699;246;2127;-39
2022/03/28 05:33:22;;;;;;;;;;;21.30;29.90;;;;;;484073;246;974;-39
2022/03/28 05:35:23;;;;;;;;;;;21.40;30.00;;;;;;484049;246;1237;-39
2022/03/28 05:37:25;;;;;;;;;;;21.40;29.90;;;;;;484088;246;1188;-39
2022/03/28 05:39:26;;;;;;;;;;;21.40;29.90;;;;;;483998;246;1167;-39
2022/03/28 05:41:27;;;;;;;;;;;21.40;29.90;;;;;;483908;246;1242;-39
2022/03/28 05:43:28;;;;;;;;;;;21.40;29.90;;;;;;484029;246;1169;-39
2022/03/28 05:45:30;;;;;;;;;;;21.40;29.90;;;;;;483985;246;1080;-39
2022/03/28 05:47:31;;;;;;;;;;;21.40;30.00;;;;;;483931;246;1135;-39
2022/03/28 05:49:33;;;;;;;;;;;21.40;29.90;;;;;;484116;246;2207;-39
2022/03/28 05:51:34;;;;;;;;;;;21.40;29.90;;;;;;483938;246;1104;-39
2022/03/28 05:53:35;;;;;;;;;;;21.40;29.90;;;;;;483875;246;1122;-39
2022/03/28 05:55:37;;;;;;;;;;;21.30;29.90;;;;;;483958;246;1176;-39
2022/03/28 05:57:38;;;;;;;;;;;21.40;29.90;;;;;;483903;246;1235;-39
2022/03/28 05:59:40;;;;;;;;;;;21.40;30.00;;;;;;483966;246;1082;-39
2022/03/28 06:01:41;;;;;;;;;;;21.40;30.00;;;;;;483918;246;1475;-39
2022/03/28 06:03:42;;;;;;;;;;;21.40;29.90;;;;;;484185;246;1059;-39
2022/03/28 06:05:43;;;;;;;;;;;21.40;29.90;;;;;;483814;246;1277;-39
2022/03/28 06:07:45;;;;;;;;;;;21.40;30.00;;;;;;483824;246;1250;-39
2022/03/28 06:09:46;;;;;;;;;;;21.40;29.90;;;;;;484065;246;2129;-39
2022/03/28 06:11:47;;;;;;;;;;;21.40;29.90;;;;;;483801;246;1520;-39
2022/03/28 06:13:49;;;;;;;;;;;21.40;29.90;;;;;;483983;246;1046;-39
2022/03/28 06:15:50;;;;;;;;;;;21.40;29.90;;;;;;483830;246;1350;-39
2022/03/28 06:17:53;;;;;;;;;;;21.40;29.90;;;;;;483905;246;1453;-39
2022/03/28 06:19:53;;;;;;;;;;;21.40;29.90;;;;;;483935;246;2438;-39
2022/03/28 06:21:54;;;;;;;;;;;21.40;29.90;;;;;;483718;246;1402;-39
2022/03/28 06:23:56;;;;;;;;;;;21.40;29.90;;;;;;483922;246;1062;-39
2022/03/28 06:25:57;;;;;;;;;;;21.40;29.80;;;;;;483852;246;1389;-39
2022/03/28 06:27:58;;;;;;;;;;;21.40;29.80;;;;;;483910;246;1243;-39
2022/03/28 06:29:59;;;;;;;;;;;21.40;29.80;;;;;;484291;246;2108;-39
2022/03/28 06:32:01;;;;;;;;;;;21.40;29.80;;;;;;484120;246;1264;-39
2022/03/28 06:34:02;;;;;;;;;;;21.40;29.80;;;;;;483656;246;1235;-39
2022/03/28 06:36:04;;;;;;;;;;;21.40;29.80;;;;;;483777;246;1229;-39
2022/03/28 06:38:05;;;;;;;;;;;21.40;29.80;;;;;;483755;246;1055;-39
2022/03/28 06:40:08;;;;;;;;;;;21.40;29.80;;;;;;483826;246;1222;-39
2022/03/28 06:42:08;;;;;;;;;;;21.40;29.80;;;;;;483647;246;1586;-39
2022/03/28 06:44:11;;;;;;;;;;;21.40;29.80;;;;;;483863;246;1085;-39
2022/03/28 06:46:11;;;;;;;;;;;21.40;29.80;;;;;;483475;246;1930;-39
2022/03/28 06:48:12;;;;;;;;;;;21.40;29.80;;;;;;483785;246;1051;-39
2022/03/28 06:50:13;;;;;;;;;;;21.40;29.80;;;;;;483638;246;2192;-39
2022/03/28 06:52:15;;;;;;;;;;;21.40;29.80;;;;;;483450;246;1371;-39
2022/03/28 06:54:19;;;;;;;;;;;21.40;29.80;;;;;;483940;246;1095;-39
2022/03/28 06:56:17;;;;;;;;;;;21.40;29.80;;;;;;483300;246;2239;-39
2022/03/28 06:58:19;;;;;;;;;;;21.50;29.80;;;;;;483867;246;1108;-39
2022/03/28 07:00:20;;;;;;;;;;;21.50;29.80;;;;;;483753;246;1112;-39
2022/03/28 07:02:21;;;;;;;;;;;21.40;29.80;;;;;;483760;246;1229;-39
2022/03/28 07:04:22;;;;;;;;;;;21.50;29.80;;;;;;483598;246;1063;-39
2022/03/28 07:06:24;;;;;;;;;;;21.50;29.80;;;;;;483492;246;1105;-39
2022/03/28 07:08:25;;;;;;;;;;;21.50;29.80;;;;;;483672;246;2139;-39
2022/03/28 07:10:26;;;;;;;;;;;21.50;29.80;;;;;;483732;246;1158;-39
2022/03/28 07:12:28;;;;;;;;;;;21.40;29.80;;;;;;483979;246;1314;-39
2022/03/28 07:14:29;;;;;;;;;;;21.40;29.80;;;;;;483577;246;1086;-39
2022/03/28 07:16:30;;;;;;;;;;;21.40;29.80;;;;;;483455;246;1405;-39
2022/03/28 07:18:32;;;;;;;;;;;21.50;29.80;;;;;;483570;246;1151;-39
2022/03/28 07:20:33;;;;;;;;;;;21.50;29.80;;;;;;483503;246;1241;-39
2022/03/28 07:22:35;;;;;;;;;;;21.50;29.80;;;;;;483411;246;1233;-39
2022/03/28 07:24:36;;;;;;;;;;;21.40;29.80;;;;;;483554;246;1205;-39
2022/03/28 07:26:37;;;;;;;;;;;21.40;29.80;;;;;;483603;246;1257;-39
2022/03/28 07:28:39;;;;;;;;;;;21.50;29.90;;;;;;483560;246;2210;-39
2022/03/28 07:30:40;;;;;;;;;;;21.50;29.80;;;;;;483424;246;1134;-39
2022/03/28 07:32:42;;;;;;;;;;;21.50;29.80;;;;;;483362;246;1038;-39
2022/03/28 07:34:43;;;;;;;;;;;21.40;29.80;;;;;;483687;246;1143;-39
2022/03/28 07:36:45;;;;;;;;;;;21.50;29.80;;;;;;483633;246;1304;-39
2022/03/28 07:38:46;;;;;;;;;;;21.50;29.80;;;;;;483527;246;2218;-39
2022/03/28 07:40:47;;;;;;;;;;;21.50;29.80;;;;;;483588;246;1087;-39
2022/03/28 07:42:50;;;;;;;;;;;21.50;29.80;;;;;;483446;246;1697;-39
2022/03/28 07:44:55;;;;;;;;;;;21.50;29.80;;;;;;483088;246;1390;-39
2022/03/28 07:46:51;;;;;;;;;;;21.50;29.80;;;;;;483032;246;2343;-39
2022/03/28 07:48:55;;;;;;;;;;;21.50;29.90;;;;;;483463;246;2184;-39
2022/03/28 07:50:55;;;;;;;;;;;21.50;29.80;;;;;;483252;242;2380;-39
2022/03/28 07:52:55;;;;;;;;;;;21.50;29.80;;;;;;483343;246;2211;-39
2022/03/28 07:54:57;;;;;;;;;;;21.50;29.90;;;;;;483580;246;1113;-39
2022/03/28 07:56:58;;;;;;;;;;;21.50;29.90;;;;;;483718;246;1233;-39
2022/03/28 07:58:59;;;;;;;;;;;21.50;29.80;;;;;;483502;246;1144;-39
2022/03/28 08:01:00;;;;;;;;;;;21.40;29.80;;;;;;483478;246;1333;-39
2022/03/28 08:03:02;;;;;;;;;;;21.50;29.90;;;;;;483488;246;1165;-39
2022/03/28 08:05:03;;;;;;;;;;;21.50;29.90;;;;;;483475;246;1152;-39
2022/03/28 08:07:07;;;;;;;;;;;21.40;29.90;;;;;;483510;246;1255;-39
2022/03/28 08:09:07;;;;;;;;;;;21.50;29.80;;;;;;483442;246;2196;-39
2022/03/28 08:11:09;;;;;;;;;;;21.50;29.80;;;;;;483725;246;1162;-39
2022/03/28 08:13:09;;;;;;;;;;;21.50;29.80;;;;;;483526;246;2320;-39
2022/03/28 08:15:11;;;;;;;;;;;21.50;29.80;;;;;;483460;246;1104;-38
2022/03/28 08:17:12;;;;;;;;;;;21.50;29.80;;;;;;483311;242;1265;-38
2022/03/28 08:19:13;;;;;;;;;;;21.50;29.80;;;;;;483352;246;1184;-38
2022/03/28 08:21:14;;;;;;;;;;;21.50;29.80;;;;;;483368;246;1159;-38
2022/03/28 08:23:19;;;;;;;;;;;21.50;29.80;;;;;;483379;246;1005;-38
2022/03/28 08:25:17;;;;;;;;;;;21.50;29.80;;;;;;483267;246;2170;-38
2022/03/28 08:27:19;;;;;;;;;;;21.60;29.80;;;;;;483215;246;1271;-38
2022/03/28 08:29:20;;;;;;;;;;;21.50;29.80;;;;;;484026;246;2204;-38
2022/03/28 08:31:21;;;;;;;;;;;21.50;29.80;;;;;;483485;246;1375;-38
2022/03/28 08:33:23;;;;;;;;;;;21.50;29.80;;;;;;483515;246;1087;-38
2022/03/28 08:35:25;;;;;;;;;;;21.60;29.80;;;;;;483365;246;1069;-38
2022/03/28 08:37:27;;;;;;;;;;;21.50;29.80;;;;;;483521;246;1252;-39
2022/03/28 08:39:27;;;;;;;;;;;21.50;29.80;;;;;;483405;246;2266;-38
2022/03/28 08:41:29;;;;;;;;;;;21.50;29.80;;;;;;483444;246;1211;-38
2022/03/28 08:43:30;;;;;;;;;;;21.50;29.80;;;;;;483490;246;1569;-38
2022/03/28 08:45:31;;;;;;;;;;;21.50;29.80;;;;;;483532;246;1136;-39
2022/03/28 08:47:33;;;;;;;;;;;21.60;29.80;;;;;;483487;246;1234;-38
2022/03/28 08:49:34;;;;;;;;;;;21.60;29.80;;;;;;483531;246;2183;-38
2022/03/28 08:51:35;;;;;;;;;;;21.60;29.80;;;;;;483209;246;1336;-38
2022/03/28 08:53:37;;;;;;;;;;;21.60;29.80;;;;;;483489;246;1140;-38
2022/03/28 08:55:38;;;;;;;;;;;21.60;29.80;;;;;;483556;246;1220;-38
2022/03/28 08:57:40;;;;;;;;;;;21.50;29.80;;;;;;483583;246;1206;-38
2022/03/28 08:59:41;;;;;;;;;;;21.50;29.80;;;;;;483666;246;1052;-38
2022/03/28 09:01:42;;;;;;;;;;;21.50;29.80;;;;;;483452;246;1396;-38
2022/03/28 09:03:44;;;;;;;;;;;21.50;29.90;;;;;;483649;246;1107;-38
2022/03/28 09:05:49;;;;;;;;;;;21.50;29.80;;;;;;483449;246;1141;-38
2022/03/28 09:07:49;;;;;;;;;;;21.50;29.80;;;;;;483169;246;2077;-38
2022/03/28 09:09:51;;;;;;;;;;;21.50;29.90;;;;;;483332;246;2184;-38
2022/03/28 09:11:52;;;;;;;;;;;21.50;29.80;;;;;;483228;246;2199;-38
2022/03/28 09:13:53;;;;;;;;;;;21.50;29.80;;;;;;483436;246;1214;-38
2022/03/28 09:15:55;;;;;;;;;;;21.50;29.90;;;;;;483416;246;1553;-38
2022/03/28 09:17:56;;;;;;;;;;;21.60;29.90;;;;;;483916;246;1194;-39
2022/03/28 09:19:59;;;;;;;;;;;21.60;29.80;;;;;;483379;246;1089;-38
2022/03/28 09:21:59;;;;;;;;;;;21.50;29.90;;;;;;483318;246;2233;-38
2022/03/28 09:24:00;;;;;;;;;;;21.50;29.80;;;;;;482684;246;1125;-38
2022/03/28 09:26:02;;;;;;;;;;;21.50;29.80;;;;;;483331;246;1249;-38
2022/03/28 09:28:03;;;;;;;;;;;21.50;29.90;;;;;;483406;246;1546;-38
2022/03/28 09:30:04;;;;;;;;;;;21.40;29.90;;;;;;483467;246;2195;-38
2022/03/28 09:32:06;;;;;;;;;;;21.50;29.90;;;;;;483316;246;1093;-38
2022/03/28 09:34:07;;;;;;;;;;;21.50;29.90;;;;;;483477;246;1200;-38
2022/03/28 09:36:08;;;;;;;;;;;21.50;29.90;;;;;;483298;246;1180;-38
2022/03/28 09:38:11;;;;;;;;;;;21.50;29.90;;;;;;484124;246;1115;-38
2022/03/28 09:40:11;;;;;;;;;;;21.50;29.80;;;;;;483747;246;2150;-39
2022/03/28 09:42:12;;;;;;;;;;;21.50;29.80;;;;;;483573;246;1093;-38
2022/03/28 09:44:13;;;;;;;;;;;21.50;29.80;;;;;;483485;246;1305;-38
2022/03/28 09:46:15;;;;;;;;;;;21.50;29.80;;;;;;483430;246;1169;-38
2022/03/28 09:48:16;;;;;;;;;;;21.50;29.80;;;;;;483551;246;1168;-38
2022/03/28 09:50:17;;;;;;;;;;;21.50;29.80;;;;;;483500;246;2191;-38
2022/03/28 09:52:19;;;;;;;;;;;21.50;29.80;;;;;;483635;246;1185;-38
2022/03/28 09:54:23;;;;;;;;;;;21.50;29.80;;;;;;483406;245;1244;-38
2022/03/28 09:56:22;;;;;;;;;;;21.50;29.80;;;;;;483353;246;2471;-38
2022/03/28 09:58:23;;;;;;;;;;;21.50;29.80;;;;;;483523;246;1198;-38
2022/03/28 10:00:25;;;;;;;;;;;21.50;29.80;;;;;;483532;246;1118;-38
2022/03/28 10:02:26;;;;;;;;;;;21.50;29.80;;;;;;483440;246;1935;-38
2022/03/28 10:04:31;;;;;;;;;;;21.40;29.80;;;;;;483511;246;1296;-38
2022/03/28 10:06:29;;;;;;;;;;;21.50;29.80;;;;;;483236;246;1752;-38
2022/03/28 10:08:30;;;;;;;;;;;21.50;29.80;;;;;;483732;246;1123;-38
2022/03/28 10:10:32;;;;;;;;;;;21.50;29.80;;;;;;483479;246;2196;-38
2022/03/28 10:12:33;;;;;;;;;;;21.50;29.70;;;;;;483710;246;1370;-38
2022/03/28 10:14:35;;;;;;;;;;;21.50;29.70;;;;;;483384;246;1155;-38
2022/03/28 10:16:36;;;;;;;;;;;21.50;29.70;;;;;;483109;246;1344;-38
2022/03/28 10:18:37;;;;;;;;;;;21.50;29.70;;;;;;483327;246;1263;-38
2022/03/28 10:20:39;;;;;;;;;;;21.50;29.70;;;;;;483370;246;1212;-38
2022/03/28 10:22:40;;;;;;;;;;;21.50;29.70;;;;;;484207;246;1071;-38
2022/03/28 10:24:41;;;;;;;;;;;21.50;29.70;;;;;;483823;246;1144;-38
2022/03/28 10:26:44;;;;;;;;;;;21.60;29.70;;;;;;483218;246;1240;-38
2022/03/28 10:28:44;;;;;;;;;;;21.60;29.70;;;;;;483161;246;2286;-38
2022/03/28 10:30:45;;;;;;;;;;;21.50;29.70;;;;;;483274;246;2178;-38
2022/03/28 10:32:46;;;;;;;;;;;21.50;29.70;;;;;;483171;246;1204;-38
2022/03/28 10:34:48;;;;;;;;;;;21.50;29.70;;;;;;483015;246;1204;-38
2022/03/28 10:36:49;;;;;;;;;;;21.50;29.70;;;;;;483456;246;1408;-38
2022/03/28 10:38:51;;;;;;;;;;;21.40;29.70;;;;;;483498;246;1092;-38
2022/03/28 10:40:52;;;;;;;;;;;21.50;29.70;;;;;;483381;246;1158;-38
2022/03/28 10:42:55;;;;;;;;;;;21.50;29.70;;;;;;483678;246;1142;-38
2022/03/28 10:44:55;;;;;;;;;;;21.50;29.70;;;;;;483327;246;1414;-38
2022/03/28 10:46:56;;;;;;;;;;;21.50;29.70;;;;;;483493;246;1286;-38
2022/03/28 10:48:57;;;;;;;;;;;21.50;29.70;;;;;;483588;246;1092;-38
2022/03/28 10:50:59;;;;;;;;;;;21.50;29.70;;;;;;483462;246;2124;-38
2022/03/28 10:53:00;;;;;;;;;;;21.50;29.70;;;;;;482827;246;1225;-38
2022/03/28 10:55:01;;;;;;;;;;;21.50;29.60;;;;;;483457;246;1258;-38
2022/03/28 10:57:04;;;;;;;;;;;21.50;29.70;;;;;;483650;246;1193;-38
2022/03/28 10:59:04;;;;;;;;;;;21.50;29.60;;;;;;483767;246;1295;-38
2022/03/28 11:01:05;;;;;;;;;;;21.50;29.70;;;;;;483457;246;1061;-38
2022/03/28 11:03:07;;;;;;;;;;;21.50;29.60;;;;;;483487;246;1199;-38
2022/03/28 11:05:08;;;;;;;;;;;21.50;29.70;;;;;;483546;246;1066;-38
2022/03/28 11:07:12;;;;;;;;;;;21.50;29.60;;;;;;483537;246;1061;-38
2022/03/28 11:09:11;;;;;;;;;;;21.50;29.60;;;;;;483378;246;1895;-38
2022/03/28 11:11:12;;;;;;;;;;;21.50;29.60;;;;;;483575;246;2108;-38
2022/03/28 11:13:14;;;;;;;;;;;21.50;29.70;;;;;;483512;246;1033;-38
2022/03/28 11:15:15;;;;;;;;;;;21.50;29.60;;;;;;483653;246;1203;-38
2022/03/28 11:17:17;;;;;;;;;;;21.40;29.60;;;;;;483489;246;1282;-38
2022/03/28 11:19:18;;;;;;;;;;;21.50;29.60;;;;;;483529;246;1090;-38
2022/03/28 11:21:19;;;;;;;;;;;21.50;29.60;;;;;;483543;246;1023;-38
2022/03/28 11:23:22;;;;;;;;;;;21.50;29.60;;;;;;483850;246;1078;-38
2022/03/28 11:25:22;;;;;;;;;;;21.50;29.60;;;;;;483356;246;1878;-38
2022/03/28 11:27:23;;;;;;;;;;;21.50;29.60;;;;;;483349;246;1132;-38
2022/03/28 11:29:25;;;;;;;;;;;21.50;29.60;;;;;;483429;246;1205;-38
2022/03/28 11:31:26;;;;;;;;;;;21.50;29.60;;;;;;483428;246;2219;-38
2022/03/28 11:33:27;;;;;;;;;;;21.50;29.60;;;;;;483321;246;1178;-38
2022/03/28 11:35:30;;;;;;;;;;;21.40;29.60;;;;;;483382;246;1102;-38
2022/03/28 11:37:32;;;;;;;;;;;21.40;29.60;;;;;;483302;246;1186;-38
2022/03/28 11:39:33;;;;;;;;;;;21.50;29.60;;;;;;483502;246;1082;-38
2022/03/28 11:41:34;;;;;;;;;;;21.50;29.50;;;;;;483622;246;1217;-38
2022/03/28 11:43:37;;;;;;;;;;;21.50;29.50;;;;;;483601;246;1070;-38
2022/03/28 11:45:38;;;;;;;;;;;21.50;29.60;;;;;;483537;246;1310;-38
2022/03/28 11:47:39;;;;;;;;;;;21.50;29.50;;;;;;483519;246;1237;-38
2022/03/28 11:49:41;;;;;;;;;;;21.50;29.60;;;;;;483351;246;1112;-38
2022/03/28 11:51:43;;;;;;;;;;;21.50;29.60;;;;;;483296;246;2188;-38
2022/03/28 11:53:44;;;;;;;;;;;21.50;29.60;;;;;;483731;246;2094;-38
2022/03/28 11:55:45;;;;;;;;;;;21.50;29.50;;;;;;483425;246;2301;-38
2022/03/28 12:00:06;;;;;;;;;;;21.50;29.50;;;;;;483454;246;1183;-38